createdAt,value
2018-05-31T00:01:21.009Z,87.96
2018-05-31T00:04:23.538Z,87.94
2018-05-31T00:07:26.103Z,87.25
2018-05-31T00:10:28.591Z,86.03
2018-05-31T00:13:31.197Z,85.63
2018-05-31T00:16:33.767Z,86.01
2018-05-31T00:19:36.290Z,86.45
2018-05-31T00:22:38.799Z,86.70
2018-05-31T00:25:41.271Z,87.14
2018-05-31T00:28:43.789Z,87.91
2018-05-31T00:31:46.284Z,87.85
2018-05-31T00:34:48.776Z,87.89
2018-05-31T00:37:51.227Z,88.20
2018-05-31T00:40:53.752Z,88.51
2018-05-31T00:43:56.240Z,88.53
2018-05-31T00:46:58.743Z,88.93
2018-05-31T00:50:01.195Z,89.62
2018-05-31T00:53:03.738Z,90.28
2018-05-31T00:56:17.235Z,90.32
2018-05-31T00:59:19.724Z,90.89
2018-05-31T01:02:22.201Z,91.15
2018-05-31T01:05:24.690Z,91.42
2018-05-31T01:08:27.189Z,91.67
2018-05-31T01:11:29.704Z,91.80
2018-05-31T01:14:32.208Z,91.82
2018-05-31T01:17:34.713Z,91.89
2018-05-31T01:20:37.222Z,91.89
2018-05-31T01:23:39.760Z,91.95
2018-05-31T01:26:42.312Z,92.11
2018-05-31T01:29:44.829Z,92.16
2018-05-31T01:32:47.367Z,92.21
2018-05-31T01:35:49.883Z,92.23
2018-05-31T01:38:52.421Z,92.25
2018-05-31T01:41:54.938Z,92.27
2018-05-31T01:44:57.384Z,92.28
2018-05-31T01:47:59.879Z,92.30
2018-05-31T01:51:02.385Z,92.32
2018-05-31T01:54:04.871Z,92.22
2018-05-31T01:57:07.403Z,92.02
2018-05-31T02:00:09.870Z,91.93
2018-05-31T02:03:12.373Z,92.45
2018-05-31T02:06:14.877Z,92.70
2018-05-31T02:09:17.354Z,92.84
2018-05-31T02:12:19.915Z,93.04
2018-05-31T02:15:22.424Z,93.04
2018-05-31T02:18:24.865Z,93.16
2018-05-31T02:21:27.528Z,93.24
2018-05-31T02:24:30.039Z,93.39
2018-05-31T02:27:32.538Z,93.43
2018-05-31T02:30:35.059Z,93.50
2018-05-31T02:33:37.569Z,93.63
2018-05-31T02:36:40.071Z,93.62
2018-05-31T02:39:42.539Z,93.39
2018-05-31T02:42:45.045Z,92.88
2018-05-31T02:45:47.512Z,91.66
2018-05-31T02:48:49.993Z,89.88
2018-05-31T02:51:52.425Z,89.52
2018-05-31T02:54:54.990Z,89.34
2018-05-31T02:57:57.490Z,89.11
2018-05-31T03:00:59.950Z,89.09
2018-05-31T03:04:02.481Z,89.32
2018-05-31T03:07:04.946Z,89.44
2018-05-31T03:10:07.462Z,89.47
2018-05-31T03:13:09.915Z,88.55
2018-05-31T03:16:12.423Z,88.53
2018-05-31T03:19:14.900Z,88.47
2018-05-31T03:22:17.455Z,88.67
2018-05-31T03:25:20.021Z,88.80
2018-05-31T03:28:22.520Z,89.04
2018-05-31T03:31:25.035Z,89.36
2018-05-31T03:34:27.528Z,89.54
2018-05-31T03:37:30.073Z,89.12
2018-05-31T03:40:32.547Z,87.69
2018-05-31T03:43:35.084Z,87.51
2018-05-31T03:46:37.644Z,83.22
2018-05-31T03:49:40.100Z,82.39
2018-05-31T03:52:42.601Z,80.07
2018-05-31T03:55:45.084Z,78.33
2018-05-31T03:58:47.589Z,78.98
2018-05-31T04:01:50.081Z,79.68
2018-05-31T04:04:52.574Z,77.89
2018-05-31T04:07:55.034Z,74.83
2018-05-31T04:10:58.411Z,72.67
2018-05-31T04:14:00.931Z,70.29
2018-05-31T04:17:03.479Z,66.69
2018-05-31T04:20:05.985Z,66.00
2018-05-31T04:23:08.465Z,63.56
2018-05-31T04:26:10.975Z,64.18
2018-05-31T04:29:13.420Z,64.69
2018-05-31T04:32:15.913Z,65.24
2018-05-31T04:35:18.470Z,63.95
2018-05-31T04:38:21.000Z,62.09
2018-05-31T04:41:23.499Z,61.00
2018-05-31T04:44:26.021Z,57.05
2018-05-31T04:47:28.687Z,55.55
2018-05-31T04:50:31.195Z,55.39
2018-05-31T04:53:33.744Z,55.55
2018-05-31T04:56:36.319Z,53.68
2018-05-31T04:59:38.842Z,53.95
2018-05-31T05:02:41.311Z,52.78
2018-05-31T05:05:43.843Z,53.57
2018-05-31T05:08:46.317Z,52.46
2018-05-31T05:11:48.846Z,50.72
2018-05-31T05:14:51.399Z,45.90
2018-05-31T05:17:53.924Z,48.84
2018-05-31T05:20:56.447Z,49.84
2018-05-31T05:23:58.965Z,49.51
2018-05-31T05:27:01.461Z,48.58
2018-05-31T05:30:03.964Z,45.51
2018-05-31T05:33:06.508Z,47.42
2018-05-31T05:36:09.025Z,48.79
2018-05-31T05:39:11.656Z,53.39
2018-05-31T05:42:14.152Z,53.14
2018-05-31T05:45:16.628Z,51.93
2018-05-31T05:48:19.106Z,51.45
2018-05-31T05:51:21.621Z,48.89
2018-05-31T05:54:24.136Z,47.17
2018-05-31T05:57:26.622Z,46.60
2018-05-31T06:00:29.286Z,44.87
2018-05-31T06:03:31.770Z,45.84
2018-05-31T06:06:34.262Z,45.11
2018-05-31T06:09:36.840Z,47.65
2018-05-31T06:12:39.301Z,46.28
2018-05-31T06:15:41.884Z,45.36
2018-05-31T06:18:44.385Z,45.16
2018-05-31T06:21:46.898Z,46.25
2018-05-31T06:24:49.385Z,44.39
2018-05-31T06:27:51.839Z,47.09
2018-05-31T06:30:54.337Z,49.67
2018-05-31T06:33:56.791Z,50.70
2018-05-31T06:36:59.292Z,49.81
2018-05-31T06:40:01.853Z,48.96
2018-05-31T06:43:04.452Z,49.92
2018-05-31T06:46:06.931Z,46.19
2018-05-31T06:49:09.436Z,45.35
2018-05-31T06:52:11.918Z,47.18
2018-05-31T06:55:14.504Z,47.11
2018-05-31T06:58:17.056Z,47.03
2018-05-31T07:01:19.592Z,52.61
2018-05-31T07:04:23.311Z,54.75
2018-05-31T07:07:25.793Z,54.13
2018-05-31T07:10:28.266Z,55.35
2018-05-31T07:13:30.781Z,56.46
2018-05-31T07:16:33.235Z,57.72
2018-05-31T07:19:35.841Z,58.23
2018-05-31T07:22:38.310Z,57.58
2018-05-31T07:25:40.782Z,61.31
2018-05-31T07:28:43.238Z,59.63
2018-05-31T07:31:45.747Z,61.47
2018-05-31T07:34:48.207Z,61.57
2018-05-31T07:37:50.792Z,62.21
2018-05-31T07:40:53.272Z,59.76
2018-05-31T07:43:55.767Z,60.60
2018-05-31T07:46:58.337Z,60.35
2018-05-31T07:50:00.834Z,58.11
2018-05-31T07:53:03.710Z,60.02
2018-05-31T07:56:06.160Z,59.83
2018-05-31T07:59:08.753Z,59.89
2018-05-31T08:02:11.216Z,59.09
2018-05-31T08:05:13.788Z,60.47
2018-05-31T08:08:16.307Z,57.40
2018-05-31T08:11:18.870Z,57.37
2018-05-31T08:14:21.328Z,60.73
2018-05-31T08:17:23.843Z,59.51
2018-05-31T08:20:26.372Z,57.67
2018-05-31T08:23:28.844Z,59.83
2018-05-31T08:26:31.377Z,60.53
2018-05-31T08:29:33.937Z,60.66
2018-05-31T08:32:36.569Z,58.64
2018-05-31T08:35:39.062Z,56.60
2018-05-31T08:38:41.544Z,58.86
2018-05-31T08:41:44.062Z,57.87
2018-05-31T08:44:46.607Z,58.25
2018-05-31T08:47:49.133Z,58.69
2018-05-31T08:50:51.627Z,59.00
2018-05-31T08:53:54.117Z,57.85
2018-05-31T08:56:56.615Z,58.96
2018-05-31T08:59:59.152Z,59.76
2018-05-31T09:03:01.713Z,59.01
2018-05-31T09:06:04.207Z,57.32
2018-05-31T09:09:06.685Z,55.38
2018-05-31T09:12:09.181Z,58.60
2018-05-31T09:15:11.728Z,58.03
2018-05-31T09:18:14.249Z,58.19
2018-05-31T09:21:16.816Z,59.21
2018-05-31T09:24:19.413Z,60.17
2018-05-31T09:27:22.000Z,57.99
2018-05-31T09:30:24.574Z,58.02
2018-05-31T09:33:27.063Z,59.03
2018-05-31T09:36:29.547Z,58.13
2018-05-31T09:39:31.979Z,55.74
2018-05-31T09:42:34.500Z,56.19
2018-05-31T09:45:36.990Z,54.75
2018-05-31T09:48:39.575Z,54.59
2018-05-31T09:51:42.052Z,52.49
2018-05-31T09:54:44.532Z,52.24
2018-05-31T09:57:47.068Z,54.91
2018-05-31T10:00:49.600Z,52.72
2018-05-31T10:03:52.207Z,52.62
2018-05-31T10:06:54.734Z,53.79
2018-05-31T10:09:57.214Z,53.01
2018-05-31T10:12:59.704Z,52.89
2018-05-31T10:16:02.240Z,51.52
2018-05-31T10:19:04.698Z,54.24
2018-05-31T10:22:07.259Z,53.90
2018-05-31T10:25:09.793Z,53.01
2018-05-31T10:28:12.353Z,51.87
2018-05-31T10:31:14.886Z,50.85
2018-05-31T10:34:17.475Z,54.09
2018-05-31T10:37:19.943Z,52.45
2018-05-31T10:40:22.474Z,51.63
2018-05-31T10:43:24.995Z,52.94
2018-05-31T10:46:27.563Z,53.17
2018-05-31T10:49:30.062Z,54.36
2018-05-31T10:52:32.524Z,54.51
2018-05-31T10:55:35.105Z,54.13
2018-05-31T10:58:37.598Z,52.46
2018-05-31T11:01:40.131Z,54.09
2018-05-31T11:04:42.726Z,54.70
2018-05-31T11:07:45.258Z,54.99
2018-05-31T11:10:47.780Z,54.08
2018-05-31T11:13:50.702Z,54.60
2018-05-31T11:16:53.196Z,52.56
2018-05-31T11:19:55.781Z,53.09
2018-05-31T11:22:58.236Z,51.35
2018-05-31T11:26:00.759Z,53.12
2018-05-31T11:29:03.249Z,50.59
2018-05-31T11:32:05.779Z,51.00
2018-05-31T11:35:08.259Z,50.34
2018-05-31T11:38:10.736Z,51.25
2018-05-31T11:41:13.216Z,47.79
2018-05-31T11:44:15.806Z,50.47
2018-05-31T11:47:18.346Z,49.92
2018-05-31T11:50:20.824Z,49.99
2018-05-31T11:53:23.395Z,51.19
2018-05-31T11:56:25.917Z,52.84
2018-05-31T11:59:28.541Z,48.07
2018-05-31T12:02:31.079Z,47.57
2018-05-31T12:05:33.557Z,47.34
2018-05-31T12:08:36.090Z,47.46
2018-05-31T12:11:38.550Z,46.48
2018-05-31T12:14:41.051Z,46.42
2018-05-31T12:17:43.586Z,49.85
2018-05-31T12:20:46.121Z,48.26
2018-05-31T12:23:48.613Z,50.20
2018-05-31T12:26:51.179Z,49.34
2018-05-31T12:29:53.699Z,48.12
2018-05-31T12:32:56.196Z,49.68
2018-05-31T12:35:58.711Z,48.76
2018-05-31T12:39:01.226Z,45.93
2018-05-31T12:42:03.777Z,48.95
2018-05-31T12:45:06.275Z,48.05
2018-05-31T12:48:08.781Z,44.87
2018-05-31T12:51:11.320Z,46.73
2018-05-31T12:54:13.825Z,46.57
2018-05-31T12:57:16.304Z,46.66
2018-05-31T13:00:18.774Z,45.78
2018-05-31T13:03:21.276Z,48.19
2018-05-31T13:06:23.766Z,48.89
2018-05-31T13:09:26.638Z,43.68
2018-05-31T13:12:29.115Z,46.63
2018-05-31T13:15:31.612Z,48.42
2018-05-31T13:18:34.066Z,45.67
2018-05-31T13:21:36.661Z,44.67
2018-05-31T13:24:39.255Z,45.31
2018-05-31T13:27:41.740Z,45.12
2018-05-31T13:30:44.301Z,46.47
2018-05-31T13:33:46.760Z,47.45
2018-05-31T13:36:49.283Z,45.99
2018-05-31T13:39:51.742Z,46.67
2018-05-31T13:42:56.165Z,44.90
2018-05-31T13:45:58.671Z,44.70
2018-05-31T13:49:01.282Z,46.74
2018-05-31T13:52:03.865Z,43.80
2018-05-31T13:55:06.402Z,43.74
2018-05-31T13:58:08.920Z,44.87
2018-05-31T14:01:11.430Z,46.40
2018-05-31T14:04:13.888Z,42.41
2018-05-31T14:07:16.482Z,41.74
2018-05-31T14:10:18.977Z,44.24
2018-05-31T14:13:21.542Z,44.16
2018-05-31T14:16:24.059Z,44.28
2018-05-31T14:19:26.546Z,44.25
2018-05-31T14:22:29.093Z,44.80
2018-05-31T14:25:31.611Z,44.67
2018-05-31T14:28:34.101Z,45.18
2018-05-31T14:31:36.655Z,46.44
2018-05-31T14:34:44.452Z,43.82
2018-05-31T14:37:48.447Z,44.27
2018-05-31T14:40:50.922Z,45.32
2018-05-31T14:43:53.552Z,46.22
2018-05-31T14:46:56.032Z,44.06
2018-05-31T14:49:58.614Z,44.33
2018-05-31T14:53:01.052Z,45.63
2018-05-31T14:56:03.556Z,46.00
2018-05-31T14:59:06.142Z,44.54
2018-05-31T15:02:08.668Z,44.05
2018-05-31T15:05:11.207Z,45.18
2018-05-31T15:08:13.703Z,44.11
2018-05-31T15:11:16.214Z,45.70
2018-05-31T15:14:18.697Z,45.57
2018-05-31T15:17:21.312Z,46.19
2018-05-31T15:20:23.831Z,43.00
2018-05-31T15:23:26.326Z,44.84
2018-05-31T15:26:29.828Z,44.60
2018-05-31T15:29:32.296Z,45.50
2018-05-31T15:32:34.847Z,48.43
2018-05-31T15:35:37.326Z,44.76
2018-05-31T15:38:39.908Z,43.27
2018-05-31T15:41:42.394Z,42.65
2018-05-31T15:44:44.920Z,45.52
2018-05-31T15:47:47.443Z,45.61
2018-05-31T15:50:49.969Z,45.57
2018-05-31T15:53:52.476Z,47.13
2018-05-31T15:56:55.030Z,49.21
2018-05-31T15:59:57.554Z,50.18
2018-05-31T16:03:00.091Z,51.75
2018-05-31T16:06:02.606Z,48.16
2018-05-31T16:09:05.973Z,53.24
2018-05-31T16:12:08.476Z,53.94
2018-05-31T16:15:11.027Z,53.88
2018-05-31T16:18:13.661Z,56.55
2018-05-31T16:21:16.169Z,57.11
2018-05-31T16:24:18.633Z,59.16
2018-05-31T16:27:21.147Z,59.30
2018-05-31T16:30:23.646Z,59.54
2018-05-31T16:33:26.117Z,59.80
2018-05-31T16:36:28.680Z,59.77
2018-05-31T16:39:31.231Z,59.27
2018-05-31T16:42:33.808Z,59.39
2018-05-31T16:45:36.375Z,59.44
2018-05-31T16:48:38.929Z,59.38
2018-05-31T16:51:41.452Z,60.19
2018-05-31T16:54:43.965Z,60.08
2018-05-31T16:57:46.472Z,60.15
2018-05-31T17:00:48.936Z,60.11
2018-05-31T17:03:51.488Z,60.15
2018-05-31T17:06:53.923Z,59.86
2018-05-31T17:09:56.418Z,59.89
2018-05-31T17:12:58.928Z,59.78
2018-05-31T17:16:01.410Z,59.88
2018-05-31T17:19:03.931Z,60.25
2018-05-31T17:22:06.398Z,60.22
2018-05-31T17:25:08.898Z,60.95
2018-05-31T17:28:11.474Z,61.12
2018-05-31T17:31:13.943Z,61.29
2018-05-31T17:34:16.454Z,60.97
2018-05-31T17:37:18.912Z,61.41
2018-05-31T17:40:21.413Z,60.89
2018-05-31T17:43:23.933Z,62.99
2018-05-31T17:46:26.573Z,63.94
2018-05-31T17:49:29.173Z,67.75
2018-05-31T17:52:31.720Z,67.73
2018-05-31T17:55:34.248Z,68.51
2018-05-31T17:58:36.979Z,70.30
2018-05-31T18:01:39.628Z,70.87
2018-05-31T18:04:42.090Z,71.95
2018-05-31T18:07:44.644Z,71.66
2018-05-31T18:10:47.120Z,72.29
2018-05-31T18:13:49.595Z,72.00
2018-05-31T18:16:52.103Z,71.06
2018-05-31T18:19:54.799Z,71.47
2018-05-31T18:22:57.320Z,71.62
2018-05-31T18:25:59.890Z,72.15
2018-05-31T18:29:02.335Z,72.32
2018-05-31T18:32:04.813Z,74.28
2018-05-31T18:35:07.308Z,74.89
2018-05-31T18:38:09.862Z,74.49
2018-05-31T18:41:12.338Z,74.86
2018-05-31T18:44:14.858Z,75.31
2018-05-31T18:47:17.300Z,75.54
2018-05-31T18:50:19.924Z,75.70
2018-05-31T18:53:22.431Z,75.70
2018-05-31T18:56:24.856Z,76.15
2018-05-31T18:59:27.407Z,75.28
2018-05-31T19:02:29.889Z,76.18
2018-05-31T19:05:32.401Z,76.90
2018-05-31T19:08:34.917Z,76.91
2018-05-31T19:11:37.539Z,76.63
2018-05-31T19:14:40.043Z,76.97
2018-05-31T19:17:42.515Z,77.27
2018-05-31T19:20:44.999Z,77.88
2018-05-31T19:23:47.483Z,78.18
2018-05-31T19:26:50.114Z,78.59
2018-05-31T19:29:52.607Z,79.00
2018-05-31T19:32:55.095Z,78.72
2018-05-31T19:36:03.470Z,79.40
2018-05-31T19:39:05.938Z,79.59
2018-05-31T19:42:14.060Z,79.42
2018-05-31T19:45:16.580Z,79.72
2018-05-31T19:48:19.128Z,79.68
2018-05-31T19:51:27.280Z,79.98
2018-05-31T19:54:29.865Z,79.97
2018-05-31T19:57:32.519Z,79.84
2018-05-31T20:00:40.578Z,79.27
2018-05-31T20:03:43.171Z,79.27
2018-05-31T20:06:45.801Z,79.59
2018-05-31T20:09:48.343Z,80.45
2018-05-31T20:12:50.899Z,81.05
2018-05-31T20:15:53.371Z,80.92
2018-05-31T20:18:55.933Z,81.11
2018-05-31T20:21:58.440Z,81.33
2018-05-31T20:25:00.965Z,81.36
2018-05-31T20:28:03.455Z,81.20
2018-05-31T20:31:05.981Z,81.45
2018-05-31T20:34:08.516Z,81.61
2018-05-31T20:37:11.014Z,81.72
2018-05-31T20:40:13.581Z,81.75
2018-05-31T20:43:16.215Z,81.98
2018-05-31T20:46:18.699Z,82.03
2018-05-31T20:49:21.345Z,82.09
2018-05-31T20:52:23.823Z,81.99
2018-05-31T20:55:26.300Z,81.88
2018-05-31T20:58:28.844Z,81.74
2018-05-31T21:01:31.411Z,81.36
2018-05-31T21:04:33.974Z,81.04
2018-05-31T21:07:36.464Z,80.49
2018-05-31T21:10:39.035Z,80.67
2018-05-31T21:13:41.561Z,80.62
2018-05-31T21:16:44.141Z,80.77
2018-05-31T21:19:46.771Z,80.98
2018-05-31T21:22:49.318Z,80.82
2018-05-31T21:25:51.876Z,80.86
2018-05-31T21:28:54.404Z,80.88
2018-05-31T21:31:56.921Z,80.94
2018-05-31T21:34:59.474Z,81.04
2018-05-31T21:38:02.487Z,80.96
2018-05-31T21:41:04.996Z,81.21
2018-05-31T21:44:07.572Z,81.40
2018-05-31T21:47:10.967Z,81.65
2018-05-31T21:50:13.512Z,81.78
2018-05-31T21:53:16.082Z,81.70
2018-05-31T21:56:18.582Z,81.71
2018-05-31T21:59:21.052Z,81.75
2018-05-31T22:02:24.902Z,81.89
2018-05-31T22:05:27.380Z,81.90
2018-05-31T22:08:29.906Z,81.91
2018-05-31T22:11:32.387Z,81.69
2018-05-31T22:14:34.936Z,81.50
2018-05-31T22:17:37.421Z,81.49
2018-05-31T22:20:39.965Z,81.70
2018-05-31T22:23:42.472Z,81.89
2018-05-31T22:26:44.976Z,82.04
2018-05-31T22:29:47.482Z,82.10
2018-05-31T22:32:49.975Z,81.97
2018-05-31T22:35:52.500Z,81.70
2018-05-31T22:38:54.967Z,81.72
2018-05-31T22:41:57.482Z,81.84
2018-05-31T22:44:59.981Z,81.65
2018-05-31T22:48:02.502Z,81.26
2018-05-31T22:51:05.041Z,81.33
2018-05-31T22:54:07.495Z,81.27
2018-05-31T22:57:10.016Z,81.40
2018-05-31T23:00:12.583Z,81.19
2018-05-31T23:03:15.057Z,81.52
2018-05-31T23:06:17.693Z,81.59
2018-05-31T23:09:20.252Z,81.58
2018-05-31T23:12:22.810Z,81.63
2018-05-31T23:15:25.290Z,81.80
2018-05-31T23:18:27.813Z,81.96
2018-05-31T23:21:30.337Z,82.09
2018-05-31T23:24:32.961Z,82.12
2018-05-31T23:27:35.412Z,82.31
2018-05-31T23:30:37.978Z,82.23
2018-05-31T23:33:40.445Z,82.15
2018-05-31T23:36:42.945Z,82.43
2018-05-31T23:39:45.467Z,82.41
2018-05-31T23:42:48.034Z,82.12
2018-05-31T23:45:50.594Z,82.16
2018-05-31T23:48:53.135Z,82.16
2018-05-31T23:51:55.609Z,82.36
2018-05-31T23:54:58.126Z,82.46
2018-05-31T23:58:00.565Z,82.36
